Ryoho Maru No.2 — JD2964 — position and weather

sailwx.info

Track history (hours):
 
Tides and Currents Weather Stations Pressure Air Temp Water Temp Dewpoint Dewpoint Depression Visibility Wind Speed Wind Dir Waves Ship Positions

Ryoho Maru No.2

Last reported at 2018-Apr-20 13:05 UTC. Time now 2018-Apr-21 11:34 UTC.
Position N 35°16' E 140°32'.

Length 57 m; draft 4 m.

Type: Tanker. MMSI: 431001062.

Date/timePositionNaut miles runAvg speedWind from/ knotsBaromVisibWave heightAir tempDewpointWater temp
2018-Apr-20 13:05N 35°16' E 140°32'110.5
2018-Apr-20 12:59N 35°16' E 140°31'1410.7
2018-Apr-20 11:38N 35°05' E 140°19'110.6
2018-Apr-20 11:30N 35°04' E 140°17'510.5
2018-Apr-20 10:59N 35°02' E 140°11'510.2
2018-Apr-20 10:30N 34°59' E 140°06'510.1
2018-Apr-20 10:00N 34°56' E 140°01'10 9.4
2018-Apr-20 08:58N 34°53' E 139°50'4 8.8
2018-Apr-20 08:30N 34°55' E 139°46'4 9.0
2018-Apr-20 08:00N 34°59' E 139°44'5 9.2
2018-Apr-20 07:30N 35°03' E 139°45'5 9.4
2018-Apr-20 07:00N 35°08' E 139°45'5 9.5
2018-Apr-20 06:30N 35°13' E 139°46'5 9.3
2018-Apr-20 06:00N 35°17' E 139°45'5 9.1
2018-Apr-20 05:30N 35°21' E 139°42'4 8.8
2018-Apr-20 05:00N 35°25' E 139°45'5 9.1
2018-Apr-20 04:30N 35°29' E 139°48'3 5.6
2018-Apr-20 03:59N 35°32' E 139°45'0 0.0
2018-Apr-20 03:29N 35°32' E 139°45'0 0.0
2018-Apr-20 02:59N 35°32' E 139°45'0 0.0
2018-Apr-20 02:29N 35°32' E 139°45'0 0.0
2018-Apr-20 01:58N 35°32' E 139°45'0 0.0
2018-Apr-20 01:28N 35°32' E 139°45'0 0.0
2018-Apr-20 00:59N 35°32' E 139°45'0 0.0
2018-Apr-20 00:26N 35°32' E 139°45'0 0.0
2018-Apr-19 23:59N 35°32' E 139°45'2 3.5
2018-Apr-19 23:30N 35°30' E 139°47'2 4.4
2018-Apr-19 23:00N 35°30' E 139°49'0 0.0
2018-Apr-19 22:27N 35°30' E 139°49'0 0.0
2018-Apr-19 21:55N 35°30' E 139°49'0 0.1
2018-Apr-19 21:19N 35°30' E 139°49'0 0.0
2018-Apr-19 21:00N 35°30' E 139°49'0 0.0
2018-Apr-19 20:30N 35°30' E 139°49'0 0.0
2018-Apr-19 19:58N 35°30' E 139°49'0 0.0
2018-Apr-19 19:30N 35°30' E 139°49'0 0.0
2018-Apr-19 18:58N 35°30' E 139°49'0 0.0
2018-Apr-19 18:31N 35°30' E 139°49'0 0.0
2018-Apr-19 18:00N 35°30' E 139°49'0 0.0
2018-Apr-19 17:31N 35°30' E 139°49'0 0.0
2018-Apr-19 17:00N 35°30' E 139°49'0 0.0
2018-Apr-19 16:30N 35°30' E 139°49'0 0.1
2018-Apr-19 15:55N 35°30' E 139°49'0 0.0
2018-Apr-19 15:31N 35°30' E 139°49'0 0.0
2018-Apr-19 15:01N 35°30' E 139°49'0 0.0
2018-Apr-19 14:30N 35°30' E 139°49'0 0.0
2018-Apr-19 14:00N 35°30' E 139°49'0 0.0
2018-Apr-19 13:30N 35°30' E 139°49'0 0.0
2018-Apr-19 13:00N 35°30' E 139°49'0 0.0
2018-Apr-19 12:31N 35°30' E 139°49'0 0.0
2018-Apr-19 12:00N 35°30' E 139°49'0 0.0
2018-Apr-19 11:30N 35°30' E 139°49'0 0.0
2018-Apr-19 11:00N 35°30' E 139°49'0 0.0
2018-Apr-19 10:30N 35°30' E 139°49'0 0.0
2018-Apr-19 10:00N 35°30' E 139°49'0 0.0
2018-Apr-19 09:30N 35°30' E 139°49'0 0.0
2018-Apr-19 09:00N 35°30' E 139°49'0 0.0
2018-Apr-19 08:30N 35°30' E 139°49'0 0.0
2018-Apr-19 08:00N 35°30' E 139°49'0 0.0
2018-Apr-19 07:31N 35°30' E 139°49'0 0.0
2018-Apr-19 07:01N 35°30' E 139°49'0 0.0
2018-Apr-19 06:31N 35°30' E 139°49'0 0.0
2018-Apr-19 05:57N 35°30' E 139°49'0 0.0
2018-Apr-19 05:30N 35°30' E 139°49'0 0.0
2018-Apr-19 05:00N 35°30' E 139°49'0 0.0
2018-Apr-19 04:28N 35°30' E 139°49'1 2.9
2018-Apr-19 03:58N 35°31' E 139°51'4 9.2
2018-Apr-19 03:30N 35°34' E 139°54'2 3.3
2018-Apr-19 03:00N 35°36' E 139°55'0 0.1
2018-Apr-19 02:30N 35°36' E 139°55'0 0.0
2018-Apr-19 01:12N 35°36' E 139°55'0 0.0
2018-Apr-19 00:12N 35°36' E 139°55'0 0.0
2018-Apr-18 23:18N 35°36' E 139°55'0 0.0
2018-Apr-18 22:48N 35°36' E 139°55'0 0.0
2018-Apr-18 22:30N 35°36' E 139°55'0 0.0
2018-Apr-18 22:00N 35°36' E 139°55'0 0.1
2018-Apr-18 21:00N 35°36' E 139°55'0 0.0
2018-Apr-18 20:30N 35°36' E 139°55'0 0.1
2018-Apr-18 19:54N 35°36' E 139°55'0 0.0
2018-Apr-18 19:24N 35°36' E 139°55'0 0.0
2018-Apr-18 19:00N 35°36' E 139°55'0 0.0
2018-Apr-18 18:30N 35°36' E 139°55'0 0.0
2018-Apr-18 18:00N 35°36' E 139°55'0 0.0
2018-Apr-18 17:30N 35°36' E 139°55'0 0.0
2018-Apr-18 17:00N 35°36' E 139°55'0 0.0
2018-Apr-18 16:30N 35°36' E 139°55'0 0.0
2018-Apr-18 16:00N 35°36' E 139°55'0 0.0
2018-Apr-18 15:30N 35°36' E 139°55'0 0.0
2018-Apr-18 15:00N 35°36' E 139°55'0 0.1
2018-Apr-18 14:30N 35°36' E 139°55'0 0.0
2018-Apr-18 14:00N 35°36' E 139°55'0 0.0
2018-Apr-18 13:30N 35°36' E 139°55'0 0.0
2018-Apr-18 12:57N 35°36' E 139°55'0 0.0
2018-Apr-18 12:21N 35°36' E 139°55'0 0.0
2018-Apr-18 11:57N 35°36' E 139°55'0 0.0
2018-Apr-18 11:27N 35°36' E 139°55'0 0.0
2018-Apr-18 10:57N 35°36' E 139°55'0 0.0
2018-Apr-18 10:12N 35°36' E 139°55'0 0.0
2018-Apr-18 10:00N 35°36' E 139°55'0 0.0
2018-Apr-18 09:27N 35°36' E 139°55'0 0.0
2018-Apr-18 08:57N 35°36' E 139°55'0 0.0
2018-Apr-18 08:30N 35°36' E 139°55'0 0.0
2018-Apr-18 08:00N 35°36' E 139°55'0 0.1
2018-Apr-18 07:18N 35°36' E 139°55'0 0.0
2018-Apr-18 07:00N 35°36' E 139°55'0 0.0
2018-Apr-18 06:24N 35°36' E 139°55'0 0.0
2018-Apr-18 06:00N 35°36' E 139°55'0 0.0
2018-Apr-18 05:30N 35°36' E 139°55'0 0.0
2018-Apr-18 05:00N 35°36' E 139°55'0 0.0
2018-Apr-18 04:30N 35°36' E 139°55'0 0.0
2018-Apr-18 04:00N 35°36' E 139°55'0 0.0
2018-Apr-18 03:24N 35°36' E 139°55'2 4.2
2018-Apr-18 03:00N 35°34' E 139°56'5 9.0
2018-Apr-18 02:30N 35°31' E 139°59'3 6.2
2018-Apr-18 02:00N 35°28' E 140°01'0 0.1
2018-Apr-18 01:24N 35°28' E 140°01'0 0.0
2018-Apr-18 00:57N 35°28' E 140°01'0 0.0
2018-Apr-18 00:30N 35°28' E 140°01'0 0.0
2018-Apr-18 00:00N 35°28' E 140°01'0 0.0
2018-Apr-17 23:24N 35°28' E 140°01'0 0.7
2018-Apr-17 23:01N 35°28' E 140°01'1 2.5
2018-Apr-17 22:26N 35°29' E 139°59'0 0.0
2018-Apr-17 21:59N 35°29' E 139°59'0 0.0
2018-Apr-17 21:29N 35°29' E 139°59'0 0.0
2018-Apr-17 20:56N 35°29' E 139°59'0 0.0
2018-Apr-17 20:26N 35°29' E 139°59'0 0.0
2018-Apr-17 19:59N 35°29' E 139°59'0 0.0
2018-Apr-17 19:29N 35°29' E 139°59'0 0.0
2018-Apr-17 18:59N 35°29' E 139°59'0 0.0
2018-Apr-17 18:29N 35°29' E 139°59'0 0.0
2018-Apr-17 17:50N 35°29' E 139°59'0 0.0
2018-Apr-17 17:29N 35°29' E 139°59'0 0.0
2018-Apr-17 16:59N 35°29' E 139°59'0 0.0
2018-Apr-17 16:29N 35°29' E 139°59'0 0.0
2018-Apr-17 15:59N 35°29' E 139°59'0 0.0
2018-Apr-17 15:26N 35°29' E 139°59'0 0.0
2018-Apr-17 14:59N 35°29' E 139°59'0 0.0
2018-Apr-17 14:29N 35°29' E 139°59'0 0.0
2018-Apr-17 13:59N 35°29' E 139°59'0 0.0
2018-Apr-17 13:29N 35°29' E 139°59'0 0.0
2018-Apr-17 12:59N 35°29' E 139°59'0 0.1
2018-Apr-17 12:29N 35°29' E 139°59'0 0.0
2018-Apr-17 11:59N 35°29' E 139°59'0 0.0
2018-Apr-17 11:26N 35°29' E 139°59'0 0.0
2018-Apr-17 10:44N 35°29' E 139°59'0 0.0
2018-Apr-17 10:26N 35°29' E 139°59'0 0.1
2018-Apr-17 09:56N 35°29' E 139°60'0 0.0
2018-Apr-17 09:29N 35°29' E 139°60'0 0.0
2018-Apr-17 08:59N 35°29' E 139°60'0 0.0
2018-Apr-17 08:26N 35°29' E 139°60'0 0.0
2018-Apr-17 07:53N 35°29' E 139°60'0 0.0
2018-Apr-17 07:26N 35°29' E 139°60'0 0.0
2018-Apr-17 06:59N 35°29' E 139°60'0 0.0
2018-Apr-17 06:29N 35°29' E 139°60'0 0.0
2018-Apr-17 05:56N 35°29' E 139°60'0 0.0
2018-Apr-17 05:29N 35°29' E 139°60'0 0.0
2018-Apr-17 04:56N 35°29' E 139°60'0 0.0
2018-Apr-17 04:29N 35°29' E 139°60'0 0.0
2018-Apr-17 03:59N 35°29' E 139°60'0 0.0
2018-Apr-17 03:29N 35°29' E 139°60'0 0.0
2018-Apr-17 02:59N 35°29' E 139°60'0 0.1
2018-Apr-17 02:29N 35°29' E 139°59'0 0.0
2018-Apr-17 01:59N 35°29' E 139°59'0 0.0
2018-Apr-17 01:29N 35°29' E 139°59'0 0.0
2018-Apr-17 00:59N 35°29' E 139°59'0 0.3
2018-Apr-17 00:30N 35°29' E 139°59'5 9.4
2018-Apr-17 00:00N 35°29' E 139°54'510.1
2018-Apr-16 23:30N 35°26' E 139°49'5 9.7
2018-Apr-16 23:00N 35°22' E 139°45'4 8.3
2018-Apr-16 22:30N 35°18' E 139°45'5 9.0
2018-Apr-16 22:00N 35°13' E 139°47'5 9.6
2018-Apr-16 21:30N 35°09' E 139°47'5 9.6
2018-Apr-16 21:00N 35°04' E 139°45'510.2
2018-Apr-16 20:30N 34°59' E 139°44'610.7
2018-Apr-16 19:59N 34°53' E 139°45'12 8.9
2018-Apr-16 18:41N 34°54' E 139°59'2 9.5
2018-Apr-16 18:30N 34°55' E 140°01'5 9.2
2018-Apr-16 17:57N 34°58' E 140°06'5 9.5
2018-Apr-16 17:27N 35°01' E 140°10'  
Track history (hours):
 
Tides and Currents Weather Stations Pressure Air Temp Water Temp Dewpoint Dewpoint Depression Visibility Wind Speed Wind Dir Waves Ship Positions

Ryoho Maru No.2

Last reported at 2018-Apr-20 13:05 UTC. Time now 2018-Apr-21 11:34 UTC.
Position N 35°16' E 140°32'.

Length 57 m; draft 4 m.

Type: Tanker. MMSI: 431001062.

Date/timePositionNaut miles runAvg speedWind from/ knotsBaromVisibWave heightAir tempDewpointWater temp
2018-Apr-20 13:05N 35°16' E 140°32'110.5
2018-Apr-20 12:59N 35°16' E 140°31'1410.7
2018-Apr-20 11:38N 35°05' E 140°19'110.6
2018-Apr-20 11:30N 35°04' E 140°17'510.5
2018-Apr-20 10:59N 35°02' E 140°11'510.2
2018-Apr-20 10:30N 34°59' E 140°06'510.1
2018-Apr-20 10:00N 34°56' E 140°01'10 9.4
2018-Apr-20 08:58N 34°53' E 139°50'4 8.8
2018-Apr-20 08:30N 34°55' E 139°46'4 9.0
2018-Apr-20 08:00N 34°59' E 139°44'5 9.2
2018-Apr-20 07:30N 35°03' E 139°45'5 9.4
2018-Apr-20 07:00N 35°08' E 139°45'5 9.5
2018-Apr-20 06:30N 35°13' E 139°46'5 9.3
2018-Apr-20 06:00N 35°17' E 139°45'5 9.1
2018-Apr-20 05:30N 35°21' E 139°42'4 8.8
2018-Apr-20 05:00N 35°25' E 139°45'5 9.1
2018-Apr-20 04:30N 35°29' E 139°48'3 5.6
2018-Apr-20 03:59N 35°32' E 139°45'0 0.0
2018-Apr-20 03:29N 35°32' E 139°45'0 0.0
2018-Apr-20 02:59N 35°32' E 139°45'0 0.0
2018-Apr-20 02:29N 35°32' E 139°45'0 0.0
2018-Apr-20 01:58N 35°32' E 139°45'0 0.0
2018-Apr-20 01:28N 35°32' E 139°45'0 0.0
2018-Apr-20 00:59N 35°32' E 139°45'0 0.0
2018-Apr-20 00:26N 35°32' E 139°45'0 0.0
2018-Apr-19 23:59N 35°32' E 139°45'2 3.5
2018-Apr-19 23:30N 35°30' E 139°47'2 4.4
2018-Apr-19 23:00N 35°30' E 139°49'0 0.0
2018-Apr-19 22:27N 35°30' E 139°49'0 0.0
2018-Apr-19 21:55N 35°30' E 139°49'0 0.1
2018-Apr-19 21:19N 35°30' E 139°49'0 0.0
2018-Apr-19 21:00N 35°30' E 139°49'0 0.0
2018-Apr-19 20:30N 35°30' E 139°49'0 0.0
2018-Apr-19 19:58N 35°30' E 139°49'0 0.0
2018-Apr-19 19:30N 35°30' E 139°49'0 0.0
2018-Apr-19 18:58N 35°30' E 139°49'0 0.0
2018-Apr-19 18:31N 35°30' E 139°49'0 0.0
2018-Apr-19 18:00N 35°30' E 139°49'0 0.0
2018-Apr-19 17:31N 35°30' E 139°49'0 0.0
2018-Apr-19 17:00N 35°30' E 139°49'0 0.0
2018-Apr-19 16:30N 35°30' E 139°49'0 0.1
2018-Apr-19 15:55N 35°30' E 139°49'0 0.0
2018-Apr-19 15:31N 35°30' E 139°49'0 0.0
2018-Apr-19 15:01N 35°30' E 139°49'0 0.0
2018-Apr-19 14:30N 35°30' E 139°49'0 0.0
2018-Apr-19 14:00N 35°30' E 139°49'0 0.0
2018-Apr-19 13:30N 35°30' E 139°49'0 0.0
2018-Apr-19 13:00N 35°30' E 139°49'0 0.0
2018-Apr-19 12:31N 35°30' E 139°49'0 0.0
2018-Apr-19 12:00N 35°30' E 139°49'0 0.0
2018-Apr-19 11:30N 35°30' E 139°49'0 0.0
2018-Apr-19 11:00N 35°30' E 139°49'0 0.0
2018-Apr-19 10:30N 35°30' E 139°49'0 0.0
2018-Apr-19 10:00N 35°30' E 139°49'0 0.0
2018-Apr-19 09:30N 35°30' E 139°49'0 0.0
2018-Apr-19 09:00N 35°30' E 139°49'0 0.0
2018-Apr-19 08:30N 35°30' E 139°49'0 0.0
2018-Apr-19 08:00N 35°30' E 139°49'0 0.0
2018-Apr-19 07:31N 35°30' E 139°49'0 0.0
2018-Apr-19 07:01N 35°30' E 139°49'0 0.0
2018-Apr-19 06:31N 35°30' E 139°49'0 0.0
2018-Apr-19 05:57N 35°30' E 139°49'0 0.0
2018-Apr-19 05:30N 35°30' E 139°49'0 0.0
2018-Apr-19 05:00N 35°30' E 139°49'0 0.0
2018-Apr-19 04:28N 35°30' E 139°49'1 2.9
2018-Apr-19 03:58N 35°31' E 139°51'4 9.2
2018-Apr-19 03:30N 35°34' E 139°54'2 3.3
2018-Apr-19 03:00N 35°36' E 139°55'0 0.1
2018-Apr-19 02:30N 35°36' E 139°55'0 0.0
2018-Apr-19 01:12N 35°36' E 139°55'0 0.0
2018-Apr-19 00:12N 35°36' E 139°55'0 0.0
2018-Apr-18 23:18N 35°36' E 139°55'0 0.0
2018-Apr-18 22:48N 35°36' E 139°55'0 0.0
2018-Apr-18 22:30N 35°36' E 139°55'0 0.0
2018-Apr-18 22:00N 35°36' E 139°55'0 0.1
2018-Apr-18 21:00N 35°36' E 139°55'0 0.0
2018-Apr-18 20:30N 35°36' E 139°55'0 0.1
2018-Apr-18 19:54N 35°36' E 139°55'0 0.0
2018-Apr-18 19:24N 35°36' E 139°55'0 0.0
2018-Apr-18 19:00N 35°36' E 139°55'0 0.0
2018-Apr-18 18:30N 35°36' E 139°55'0 0.0
2018-Apr-18 18:00N 35°36' E 139°55'0 0.0
2018-Apr-18 17:30N 35°36' E 139°55'0 0.0
2018-Apr-18 17:00N 35°36' E 139°55'0 0.0
2018-Apr-18 16:30N 35°36' E 139°55'0 0.0
2018-Apr-18 16:00N 35°36' E 139°55'0 0.0
2018-Apr-18 15:30N 35°36' E 139°55'0 0.0
2018-Apr-18 15:00N 35°36' E 139°55'0 0.1
2018-Apr-18 14:30N 35°36' E 139°55'0 0.0
2018-Apr-18 14:00N 35°36' E 139°55'0 0.0
2018-Apr-18 13:30N 35°36' E 139°55'0 0.0
2018-Apr-18 12:57N 35°36' E 139°55'0 0.0
2018-Apr-18 12:21N 35°36' E 139°55'0 0.0
2018-Apr-18 11:57N 35°36' E 139°55'0 0.0
2018-Apr-18 11:27N 35°36' E 139°55'0 0.0
2018-Apr-18 10:57N 35°36' E 139°55'0 0.0
2018-Apr-18 10:12N 35°36' E 139°55'0 0.0
2018-Apr-18 10:00N 35°36' E 139°55'0 0.0
2018-Apr-18 09:27N 35°36' E 139°55'0 0.0
2018-Apr-18 08:57N 35°36' E 139°55'0 0.0
2018-Apr-18 08:30N 35°36' E 139°55'0 0.0
2018-Apr-18 08:00N 35°36' E 139°55'0 0.1
2018-Apr-18 07:18N 35°36' E 139°55'0 0.0
2018-Apr-18 07:00N 35°36' E 139°55'0 0.0
2018-Apr-18 06:24N 35°36' E 139°55'0 0.0
2018-Apr-18 06:00N 35°36' E 139°55'0 0.0
2018-Apr-18 05:30N 35°36' E 139°55'0 0.0
2018-Apr-18 05:00N 35°36' E 139°55'0 0.0
2018-Apr-18 04:30N 35°36' E 139°55'0 0.0
2018-Apr-18 04:00N 35°36' E 139°55'0 0.0
2018-Apr-18 03:24N 35°36' E 139°55'2 4.2
2018-Apr-18 03:00N 35°34' E 139°56'5 9.0
2018-Apr-18 02:30N 35°31' E 139°59'3 6.2
2018-Apr-18 02:00N 35°28' E 140°01'0 0.1
2018-Apr-18 01:24N 35°28' E 140°01'0 0.0
2018-Apr-18 00:57N 35°28' E 140°01'0 0.0
2018-Apr-18 00:30N 35°28' E 140°01'0 0.0
2018-Apr-18 00:00N 35°28' E 140°01'0 0.0
2018-Apr-17 23:24N 35°28' E 140°01'0 0.7
2018-Apr-17 23:01N 35°28' E 140°01'1 2.5
2018-Apr-17 22:26N 35°29' E 139°59'0 0.0
2018-Apr-17 21:59N 35°29' E 139°59'0 0.0
2018-Apr-17 21:29N 35°29' E 139°59'0 0.0
2018-Apr-17 20:56N 35°29' E 139°59'0 0.0
2018-Apr-17 20:26N 35°29' E 139°59'0 0.0
2018-Apr-17 19:59N 35°29' E 139°59'0 0.0
2018-Apr-17 19:29N 35°29' E 139°59'0 0.0
2018-Apr-17 18:59N 35°29' E 139°59'0 0.0
2018-Apr-17 18:29N 35°29' E 139°59'0 0.0
2018-Apr-17 17:50N 35°29' E 139°59'0 0.0
2018-Apr-17 17:29N 35°29' E 139°59'0 0.0
2018-Apr-17 16:59N 35°29' E 139°59'0 0.0
2018-Apr-17 16:29N 35°29' E 139°59'0 0.0
2018-Apr-17 15:59N 35°29' E 139°59'0 0.0
2018-Apr-17 15:26N 35°29' E 139°59'0 0.0
2018-Apr-17 14:59N 35°29' E 139°59'0 0.0
2018-Apr-17 14:29N 35°29' E 139°59'0 0.0
2018-Apr-17 13:59N 35°29' E 139°59'0 0.0
2018-Apr-17 13:29N 35°29' E 139°59'0 0.0
2018-Apr-17 12:59N 35°29' E 139°59'0 0.1
2018-Apr-17 12:29N 35°29' E 139°59'0 0.0
2018-Apr-17 11:59N 35°29' E 139°59'0 0.0
2018-Apr-17 11:26N 35°29' E 139°59'0 0.0
2018-Apr-17 10:44N 35°29' E 139°59'0 0.0
2018-Apr-17 10:26N 35°29' E 139°59'0 0.1
2018-Apr-17 09:56N 35°29' E 139°60'0 0.0
2018-Apr-17 09:29N 35°29' E 139°60'0 0.0
2018-Apr-17 08:59N 35°29' E 139°60'0 0.0
2018-Apr-17 08:26N 35°29' E 139°60'0 0.0
2018-Apr-17 07:53N 35°29' E 139°60'0 0.0
2018-Apr-17 07:26N 35°29' E 139°60'0 0.0
2018-Apr-17 06:59N 35°29' E 139°60'0 0.0
2018-Apr-17 06:29N 35°29' E 139°60'0 0.0
2018-Apr-17 05:56N 35°29' E 139°60'0 0.0
2018-Apr-17 05:29N 35°29' E 139°60'0 0.0
2018-Apr-17 04:56N 35°29' E 139°60'0 0.0
2018-Apr-17 04:29N 35°29' E 139°60'0 0.0
2018-Apr-17 03:59N 35°29' E 139°60'0 0.0
2018-Apr-17 03:29N 35°29' E 139°60'0 0.0
2018-Apr-17 02:59N 35°29' E 139°60'0 0.1
2018-Apr-17 02:29N 35°29' E 139°59'0 0.0
2018-Apr-17 01:59N 35°29' E 139°59'0 0.0
2018-Apr-17 01:29N 35°29' E 139°59'0 0.0
2018-Apr-17 00:59N 35°29' E 139°59'0 0.3
2018-Apr-17 00:30N 35°29' E 139°59'5 9.4
2018-Apr-17 00:00N 35°29' E 139°54'510.1
2018-Apr-16 23:30N 35°26' E 139°49'5 9.7
2018-Apr-16 23:00N 35°22' E 139°45'4 8.3
2018-Apr-16 22:30N 35°18' E 139°45'5 9.0
2018-Apr-16 22:00N 35°13' E 139°47'5 9.6
2018-Apr-16 21:30N 35°09' E 139°47'5 9.6
2018-Apr-16 21:00N 35°04' E 139°45'510.2
2018-Apr-16 20:30N 34°59' E 139°44'610.7
2018-Apr-16 19:59N 34°53' E 139°45'12 8.9
2018-Apr-16 18:41N 34°54' E 139°59'2 9.5
2018-Apr-16 18:30N 34°55' E 140°01'5 9.2
2018-Apr-16 17:57N 34°58' E 140°06'5 9.5
2018-Apr-16 17:27N 35°01' E 140°10'  

Dump ship's entire track history